sensor_id;sensor_type;location;lat;lon;timestamp;pressure;altitude;pressure_sealevel;temperature;humidity
48606;BME280;8482;54.396;18.590;2023-04-15T00:01:27;100990.72;;;10.75;76.05
48606;BME280;8482;54.396;18.590;2023-04-15T00:03:54;100986.16;;;10.77;76.04
48606;BME280;8482;54.396;18.590;2023-04-15T00:06:21;100984.09;;;10.80;75.87
48606;BME280;8482;54.396;18.590;2023-04-15T00:08:48;100985.81;;;10.81;76.12
48606;BME280;8482;54.396;18.590;2023-04-15T00:11:16;100983.97;;;10.82;75.89
48606;BME280;8482;54.396;18.590;2023-04-15T00:13:43;100990.88;;;10.84;75.55
48606;BME280;8482;54.396;18.590;2023-04-15T00:16:09;100988.31;;;10.83;75.25
48606;BME280;8482;54.396;18.590;2023-04-15T00:18:36;100993.63;;;10.83;75.26
48606;BME280;8482;54.396;18.590;2023-04-15T00:21:03;100989.28;;;10.82;74.99
48606;BME280;8482;54.396;18.590;2023-04-15T00:23:29;100979.63;;;10.81;75.12
48606;BME280;8482;54.396;18.590;2023-04-15T00:25:56;100986.84;;;10.79;74.95
48606;BME280;8482;54.396;18.590;2023-04-15T00:28:22;100989.50;;;10.79;75.00
48606;BME280;8482;54.396;18.590;2023-04-15T00:30:48;100982.41;;;10.79;75.14
48606;BME280;8482;54.396;18.590;2023-04-15T00:33:14;100979.75;;;10.79;74.96
48606;BME280;8482;54.396;18.590;2023-04-15T00:35:41;100985.19;;;10.78;75.07
48606;BME280;8482;54.396;18.590;2023-04-15T00:38:07;100979.03;;;10.77;75.04
48606;BME280;8482;54.396;18.590;2023-04-15T00:40:33;100990.38;;;10.79;75.23
48606;BME280;8482;54.396;18.590;2023-04-15T00:43:00;100981.56;;;10.79;74.80
48606;BME280;8482;54.396;18.590;2023-04-15T00:45:26;100980.72;;;10.78;74.89
48606;BME280;8482;54.396;18.590;2023-04-15T00:47:53;100987.59;;;10.81;74.75
48606;BME280;8482;54.396;18.590;2023-04-15T00:50:19;100986.84;;;10.79;74.79
48606;BME280;8482;54.396;18.590;2023-04-15T00:52:44;100989.50;;;10.79;74.72
48606;BME280;8482;54.396;18.590;2023-04-15T00:55:11;100987.00;;;10.77;74.81
48606;BME280;8482;54.396;18.590;2023-04-15T00:57:38;100986.03;;;10.78;74.59
48606;BME280;8482;54.396;18.590;2023-04-15T01:00:05;100981.47;;;10.80;74.89
48606;BME280;8482;54.396;18.590;2023-04-15T01:02:34;100987.50;;;10.82;74.94
48606;BME280;8482;54.396;18.590;2023-04-15T01:05:02;100983.97;;;10.82;74.80
48606;BME280;8482;54.396;18.590;2023-04-15T01:07:29;100978.06;;;10.78;74.62
48606;BME280;8482;54.396;18.590;2023-04-15T01:09:55;100981.56;;;10.79;74.56
48606;BME280;8482;54.396;18.590;2023-04-15T01:12:23;100972.75;;;10.78;74.70
48606;BME280;8482;54.396;18.590;2023-04-15T01:14:52;100978.91;;;10.79;74.54
48606;BME280;8482;54.396;18.590;2023-04-15T01:17:18;100986.25;;;10.75;74.77
48606;BME280;8482;54.396;18.590;2023-04-15T01:19:45;100974.19;;;10.71;74.54
48606;BME280;8482;54.396;18.590;2023-04-15T01:22:11;100979.38;;;10.72;74.63
48606;BME280;8482;54.396;18.590;2023-04-15T01:24:37;100979.50;;;10.71;74.57
48606;BME280;8482;54.396;18.590;2023-04-15T01:27:04;100984.09;;;10.69;75.06
48606;BME280;8482;54.396;18.590;2023-04-15T01:29:32;100988.53;;;10.68;74.96
48606;BME280;8482;54.396;18.590;2023-04-15T01:31:58;100986.59;;;10.70;75.16
48606;BME280;8482;54.396;18.590;2023-04-15T01:34:23;100993.84;;;10.68;75.01
48606;BME280;8482;54.396;18.590;2023-04-15T01:36:49;100985.13;;;10.66;75.09
48606;BME280;8482;54.396;18.590;2023-04-15T01:39:15;100989.50;;;10.67;75.09
48606;BME280;8482;54.396;18.590;2023-04-15T01:41:41;100989.50;;;10.67;75.00
48606;BME280;8482;54.396;18.590;2023-04-15T01:44:08;100989.50;;;10.67;75.20
48606;BME280;8482;54.396;18.590;2023-04-15T01:46:34;100989.50;;;10.67;75.12
48606;BME280;8482;54.396;18.590;2023-04-15T01:49:00;100993.84;;;10.68;75.44
48606;BME280;8482;54.396;18.590;2023-04-15T01:51:26;100984.19;;;10.67;75.11
48606;BME280;8482;54.396;18.590;2023-04-15T01:53:52;100995.44;;;10.71;74.89
48606;BME280;8482;54.396;18.590;2023-04-15T01:56:21;100992.78;;;10.71;74.79
48606;BME280;8482;54.396;18.590;2023-04-15T01:58:48;100990.13;;;10.71;74.87
48606;BME280;8482;54.396;18.590;2023-04-15T02:01:14;100992.78;;;10.71;74.50
48606;BME280;8482;54.396;18.590;2023-04-15T02:03:41;100990.00;;;10.72;74.34
48606;BME280;8482;54.396;18.590;2023-04-15T02:06:07;100981.19;;;10.72;74.33
48606;BME280;8482;54.396;18.590;2023-04-15T02:08:33;100992.03;;;10.69;73.96
48606;BME280;8482;54.396;18.590;2023-04-15T02:10:59;100985.13;;;10.66;74.10
48606;BME280;8482;54.396;18.590;2023-04-15T02:13:26;100989.38;;;10.69;74.13
48606;BME280;8482;54.396;18.590;2023-04-15T02:15:53;100986.75;;;10.69;73.95
48606;BME280;8482;54.396;18.590;2023-04-15T02:18:20;100991.31;;;10.67;73.91
48606;BME280;8482;54.396;18.590;2023-04-15T02:20:46;100988.75;;;10.65;73.89
48606;BME280;8482;54.396;18.590;2023-04-15T02:23:13;100980.78;;;10.65;74.00
48606;BME280;8482;54.396;18.590;2023-04-15T02:25:38;100990.44;;;10.66;74.10
48606;BME280;8482;54.396;18.590;2023-04-15T02:28:05;100985.13;;;10.66;73.91
48606;BME280;8482;54.396;18.590;2023-04-15T02:30:32;100982.63;;;10.65;73.80
48606;BME280;8482;54.396;18.590;2023-04-15T02:32:59;100985.13;;;10.66;73.58
48606;BME280;8482;54.396;18.590;2023-04-15T02:35:26;100984.31;;;10.66;73.75
48606;BME280;8482;54.396;18.590;2023-04-15T02:37:51;100983.34;;;10.67;73.63
48606;BME280;8482;54.396;18.590;2023-04-15T02:40:17;100985.13;;;10.66;73.29
48606;BME280;8482;54.396;18.590;2023-04-15T02:42:43;100972.84;;;10.65;73.49
48606;BME280;8482;54.396;18.590;2023-04-15T02:45:10;100985.25;;;10.65;73.52
48606;BME280;8482;54.396;18.590;2023-04-15T02:47:37;100987.09;;;10.64;73.57
48606;BME280;8482;54.396;18.590;2023-04-15T02:50:12;100986.22;;;10.64;73.50
48606;BME280;8482;54.396;18.590;2023-04-15T02:52:42;100984.53;;;10.63;73.36
48606;BME280;8482;54.396;18.590;2023-04-15T02:55:08;100984.66;;;10.61;73.40
48606;BME280;8482;54.396;18.590;2023-04-15T02:57:34;100987.41;;;10.60;73.58
48606;BME280;8482;54.396;18.590;2023-04-15T03:00:03;100984.06;;;10.57;73.65
48606;BME280;8482;54.396;18.590;2023-04-15T03:06:10;100992.97;;;10.56;73.97
48606;BME280;8482;54.396;18.590;2023-04-15T03:08:36;100998.38;;;10.55;73.49
48606;BME280;8482;54.396;18.590;2023-04-15T03:11:02;100993.94;;;10.55;73.98
48606;BME280;8482;54.396;18.590;2023-04-15T03:13:29;100994.75;;;10.56;73.80
48606;BME280;8482;54.396;18.590;2023-04-15T03:15:55;100993.06;;;10.55;73.64
48606;BME280;8482;54.396;18.590;2023-04-15T03:18:20;100998.63;;;10.52;73.61
48606;BME280;8482;54.396;18.590;2023-04-15T03:20:46;100992.47;;;10.51;73.41
48606;BME280;8482;54.396;18.590;2023-04-15T03:23:12;100995.25;;;10.50;73.35
48606;BME280;8482;54.396;18.590;2023-04-15T03:25:38;100990.75;;;10.50;73.39
48606;BME280;8482;54.396;18.590;2023-04-15T03:28:04;100991.72;;;10.49;73.66
48606;BME280;8482;54.396;18.590;2023-04-15T03:30:30;101001.38;;;10.50;73.69
48606;BME280;8482;54.396;18.590;2023-04-15T03:32:56;100996.19;;;10.49;73.94
48606;BME280;8482;54.396;18.590;2023-04-15T03:35:22;101000.53;;;10.50;73.65
48606;BME280;8482;54.396;18.590;2023-04-15T03:37:48;101002.34;;;10.49;73.58
48606;BME280;8482;54.396;18.590;2023-04-15T03:40:14;101003.19;;;10.50;73.65
48606;BME280;8482;54.396;18.590;2023-04-15T03:42:40;101000.41;;;10.51;73.86
48606;BME280;8482;54.396;18.590;2023-04-15T03:45:06;101002.09;;;10.52;73.85
48606;BME280;8482;54.396;18.590;2023-04-15T03:47:32;100996.81;;;10.52;73.48
48606;BME280;8482;54.396;18.590;2023-04-15T03:49:58;100996.59;;;10.55;73.60
48606;BME280;8482;54.396;18.590;2023-04-15T03:52:24;100998.38;;;10.55;73.77
48606;BME280;8482;54.396;18.590;2023-04-15T03:54:50;101000.28;;;10.53;73.73
48606;BME280;8482;54.396;18.590;2023-04-15T03:57:16;101002.84;;;10.54;73.83
48606;BME280;8482;54.396;18.590;2023-04-15T03:59:41;100999.22;;;10.55;73.97
48606;BME280;8482;54.396;18.590;2023-04-15T04:02:07;101008.75;;;10.58;74.08
48606;BME280;8482;54.396;18.590;2023-04-15T04:04:33;101006.22;;;10.56;74.04
48606;BME280;8482;54.396;18.590;2023-04-15T04:06:59;101006.22;;;10.56;74.03
48606;BME280;8482;54.396;18.590;2023-04-15T04:09:25;101006.09;;;10.58;73.89
48606;BME280;8482;54.396;18.590;2023-04-15T04:11:52;101005.97;;;10.60;73.96
48606;BME280;8482;54.396;18.590;2023-04-15T04:14:18;101010.31;;;10.61;73.93
48606;BME280;8482;54.396;18.590;2023-04-15T04:16:43;101011.19;;;10.61;74.00
48606;BME280;8482;54.396;18.590;2023-04-15T04:19:09;101010.22;;;10.62;73.87
48606;BME280;8482;54.396;18.590;2023-04-15T04:21:35;101012.03;;;10.62;74.03
48606;BME280;8482;54.396;18.590;2023-04-15T04:24:02;101013.72;;;10.63;73.80
48606;BME280;8482;54.396;18.590;2023-04-15T04:26:27;101011.94;;;10.63;73.76
48606;BME280;8482;54.396;18.590;2023-04-15T04:28:53;101018.19;;;10.62;73.88
48606;BME280;8482;54.396;18.590;2023-04-15T04:31:19;101009.38;;;10.62;74.07
48606;BME280;8482;54.396;18.590;2023-04-15T04:33:45;101008.53;;;10.61;73.94
48606;BME280;8482;54.396;18.590;2023-04-15T04:36:11;101012.03;;;10.62;73.93
48606;BME280;8482;54.396;18.590;2023-04-15T04:38:37;101007.44;;;10.64;73.94
48606;BME280;8482;54.396;18.590;2023-04-15T04:41:03;101014.66;;;10.62;73.93
48606;BME280;8482;54.396;18.590;2023-04-15T04:43:29;101014.81;;;10.60;73.92
48606;BME280;8482;54.396;18.590;2023-04-15T04:45:55;101016.59;;;10.60;74.07
48606;BME280;8482;54.396;18.590;2023-04-15T04:48:21;101010.31;;;10.61;74.57
48606;BME280;8482;54.396;18.590;2023-04-15T04:50:47;101020.94;;;10.61;74.40
48606;BME280;8482;54.396;18.590;2023-04-15T04:53:14;101016.59;;;10.60;74.43
48606;BME280;8482;54.396;18.590;2023-04-15T04:55:39;101016.50;;;10.61;74.49
48606;BME280;8482;54.396;18.590;2023-04-15T04:58:05;101025.19;;;10.63;74.45
48606;BME280;8482;54.396;18.590;2023-04-15T05:00:31;101028.91;;;10.61;74.65
48606;BME280;8482;54.396;18.590;2023-04-15T05:02:57;101032.28;;;10.63;74.76
48606;BME280;8482;54.396;18.590;2023-04-15T05:05:23;101026.16;;;10.62;74.63
48606;BME280;8482;54.396;18.590;2023-04-15T05:07:49;101030.38;;;10.65;74.85
48606;BME280;8482;54.396;18.590;2023-04-15T05:10:15;101036.41;;;10.67;74.77
48606;BME280;8482;54.396;18.590;2023-04-15T05:12:42;101025.88;;;10.65;74.61
48606;BME280;8482;54.396;18.590;2023-04-15T05:15:09;101033.03;;;10.65;74.57
48606;BME280;8482;54.396;18.590;2023-04-15T05:17:35;101040.03;;;10.66;74.56
48606;BME280;8482;54.396;18.590;2023-04-15T05:20:02;101029.41;;;10.66;74.80
48606;BME280;8482;54.396;18.590;2023-04-15T05:22:28;101040.75;;;10.68;74.73
48606;BME280;8482;54.396;18.590;2023-04-15T05:24:54;101034.59;;;10.67;74.68
48606;BME280;8482;54.396;18.590;2023-04-15T05:27:20;101032.91;;;10.66;75.16
48606;BME280;8482;54.396;18.590;2023-04-15T05:29:47;101039.91;;;10.67;74.86
48606;BME280;8482;54.396;18.590;2023-04-15T05:32:14;101030.25;;;10.66;74.75
48606;BME280;8482;54.396;18.590;2023-04-15T05:34:40;101040.84;;;10.66;74.98
48606;BME280;8482;54.396;18.590;2023-04-15T05:37:06;101035.53;;;10.66;74.86
48606;BME280;8482;54.396;18.590;2023-04-15T05:39:32;101037.03;;;10.70;74.89
48606;BME280;8482;54.396;18.590;2023-04-15T05:41:58;101042.84;;;10.76;74.97
48606;BME280;8482;54.396;18.590;2023-04-15T05:44:25;101037.28;;;10.79;74.75
48606;BME280;8482;54.396;18.590;2023-04-15T05:46:51;101040.56;;;10.82;74.54
48606;BME280;8482;54.396;18.590;2023-04-15T05:49:17;101041.31;;;10.84;74.52
48606;BME280;8482;54.396;18.590;2023-04-15T05:51:42;101041.06;;;10.87;74.52
48606;BME280;8482;54.396;18.590;2023-04-15T05:54:08;101026.81;;;10.88;74.44
48606;BME280;8482;54.396;18.590;2023-04-15T05:56:34;101036.38;;;10.91;74.28
48606;BME280;8482;54.396;18.590;2023-04-15T05:59:00;101041.44;;;10.94;74.48
48606;BME280;8482;54.396;18.590;2023-04-15T06:01:26;101042.06;;;10.98;74.19
48606;BME280;8482;54.396;18.590;2023-04-15T06:03:52;101042.78;;;11.00;74.35
48606;BME280;8482;54.396;18.590;2023-04-15T06:06:18;101043.50;;;11.02;74.18
48606;BME280;8482;54.396;18.590;2023-04-15T06:08:44;101034.47;;;11.04;74.03
48606;BME280;8482;54.396;18.590;2023-04-15T06:11:10;101035.31;;;11.05;73.96
48606;BME280;8482;54.396;18.590;2023-04-15T06:13:36;101033.25;;;11.09;73.81
48606;BME280;8482;54.396;18.590;2023-04-15T06:16:02;101043.88;;;11.09;73.50
48606;BME280;8482;54.396;18.590;2023-04-15T06:18:28;101036.41;;;11.14;73.50
48606;BME280;8482;54.396;18.590;2023-04-15T06:20:54;101035.34;;;11.16;73.43
48606;BME280;8482;54.396;18.590;2023-04-15T06:23:20;101041.50;;;11.17;73.25
48606;BME280;8482;54.396;18.590;2023-04-15T06:25:46;101041.38;;;11.18;73.24
48606;BME280;8482;54.396;18.590;2023-04-15T06:28:12;101046.44;;;11.22;73.00
48606;BME280;8482;54.396;18.590;2023-04-15T06:30:38;101051.63;;;11.23;72.88
48606;BME280;8482;54.396;18.590;2023-04-15T06:33:04;101051.53;;;11.25;72.42
48606;BME280;8482;54.396;18.590;2023-04-15T06:35:31;101046.31;;;11.23;71.89
48606;BME280;8482;54.396;18.590;2023-04-15T06:37:56;101054.19;;;11.25;71.73
48606;BME280;8482;54.396;18.590;2023-04-15T06:40:22;101053.34;;;11.24;71.47
48606;BME280;8482;54.396;18.590;2023-04-15T06:42:48;101052.59;;;11.22;71.65
48606;BME280;8482;54.396;18.590;2023-04-15T06:45:14;101056.72;;;11.26;71.19
48606;BME280;8482;54.396;18.590;2023-04-15T06:47:40;101055.16;;;11.24;71.29
48606;BME280;8482;54.396;18.590;2023-04-15T06:50:07;101055.84;;;11.26;71.05
48606;BME280;8482;54.396;18.590;2023-04-15T06:52:34;101053.09;;;11.27;71.27
48606;BME280;8482;54.396;18.590;2023-04-15T06:55:00;101064.31;;;11.31;71.24
48606;BME280;8482;54.396;18.590;2023-04-15T06:57:26;101068.69;;;11.32;70.69
48606;BME280;8482;54.396;18.590;2023-04-15T06:59:53;101063.22;;;11.33;70.84
48606;BME280;8482;54.396;18.590;2023-04-15T07:02:20;101069.19;;;11.37;70.39
48606;BME280;8482;54.396;18.590;2023-04-15T07:04:45;101067.34;;;11.38;70.61
48606;BME280;8482;54.396;18.590;2023-04-15T07:07:12;101065.44;;;11.40;70.50
48606;BME280;8482;54.396;18.590;2023-04-15T07:09:37;101067.00;;;11.42;70.75
48606;BME280;8482;54.396;18.590;2023-04-15T07:12:03;101072.91;;;11.46;70.57
48606;BME280;8482;54.396;18.590;2023-04-15T07:14:29;101067.25;;;11.50;70.64
48606;BME280;8482;54.396;18.590;2023-04-15T07:16:55;101066.03;;;11.55;70.45
48606;BME280;8482;54.396;18.590;2023-04-15T07:19:22;101065.66;;;11.59;70.36
48606;BME280;8482;54.396;18.590;2023-04-15T07:21:48;101066.16;;;11.64;70.02
48606;BME280;8482;54.396;18.590;2023-04-15T07:24:14;101069.91;;;11.73;69.88
48606;BME280;8482;54.396;18.590;2023-04-15T07:26:43;101066.16;;;11.76;69.93
48606;BME280;8482;54.396;18.590;2023-04-15T07:29:09;101075.47;;;11.81;69.02
48606;BME280;8482;54.396;18.590;2023-04-15T07:31:35;101072.69;;;11.83;69.11
48606;BME280;8482;54.396;18.590;2023-04-15T07:34:02;101075.09;;;11.86;68.50
48606;BME280;8482;54.396;18.590;2023-04-15T07:36:29;101079.44;;;11.87;68.60
48606;BME280;8482;54.396;18.590;2023-04-15T07:38:55;101073.16;;;11.88;68.67
48606;BME280;8482;54.396;18.590;2023-04-15T07:41:22;101080.91;;;11.91;68.58
48606;BME280;8482;54.396;18.590;2023-04-15T07:43:48;101077.13;;;11.94;68.72
48606;BME280;8482;54.396;18.590;2023-04-15T07:46:14;101070.84;;;11.95;68.41
48606;BME280;8482;54.396;18.590;2023-04-15T07:48:40;101078.50;;;12.00;68.40
48606;BME280;8482;54.396;18.590;2023-04-15T07:51:07;101080.09;;;12.02;68.58
48606;BME280;8482;54.396;18.590;2023-04-15T07:53:33;101078.97;;;12.05;68.12
48606;BME280;8482;54.396;18.590;2023-04-15T07:55:58;101088.41;;;12.09;67.86
48606;BME280;8482;54.396;18.590;2023-04-15T07:58:25;101081.88;;;12.13;67.80
48606;BME280;8482;54.396;18.590;2023-04-15T08:00:50;101078.13;;;12.16;67.52
48606;BME280;8482;54.396;18.590;2023-04-15T08:03:17;101075.34;;;12.17;67.22
48606;BME280;8482;54.396;18.590;2023-04-15T08:05:42;101072.69;;;12.17;67.00
48606;BME280;8482;54.396;18.590;2023-04-15T08:08:09;101079.69;;;12.18;67.14
48606;BME280;8482;54.396;18.590;2023-04-15T08:10:35;101074.97;;;12.22;66.96
48606;BME280;8482;54.396;18.590;2023-04-15T08:13:02;101082.69;;;12.25;67.11
48606;BME280;8482;54.396;18.590;2023-04-15T08:15:27;101084.00;;;12.31;67.09
48606;BME280;8482;54.396;18.590;2023-04-15T08:17:53;101073.72;;;12.37;66.57
48606;BME280;8482;54.396;18.590;2023-04-15T08:20:19;101077.69;;;12.43;66.59
48606;BME280;8482;54.396;18.590;2023-04-15T08:22:45;101080.13;;;12.46;66.47
48606;BME280;8482;54.396;18.590;2023-04-15T08:25:16;101072.84;;;12.48;65.97
48606;BME280;8482;54.396;18.590;2023-04-15T08:27:42;101075.97;;;12.53;66.41
48606;BME280;8482;54.396;18.590;2023-04-15T08:30:08;101069.19;;;12.61;66.17
48606;BME280;8482;54.396;18.590;2023-04-15T08:32:34;101076.53;;;12.68;65.67
48606;BME280;8482;54.396;18.590;2023-04-15T08:35:00;101078.91;;;12.71;65.86
48606;BME280;8482;54.396;18.590;2023-04-15T08:37:26;101080.50;;;12.74;65.50
48606;BME280;8482;54.396;18.590;2023-04-15T08:39:52;101078.41;;;12.78;65.84
48606;BME280;8482;54.396;18.590;2023-04-15T08:42:27;101079.38;;;12.77;65.61
48606;BME280;8482;54.396;18.590;2023-04-15T08:45:00;101088.34;;;12.76;65.82
48606;BME280;8482;54.396;18.590;2023-04-15T08:47:30;101080.22;;;12.77;65.71
48606;BME280;8482;54.396;18.590;2023-04-15T08:50:02;101082.78;;;12.79;65.71
48606;BME280;8482;54.396;18.590;2023-04-15T08:52:30;101088.94;;;12.79;65.41
48606;BME280;8482;54.396;18.590;2023-04-15T08:54:59;101087.97;;;12.80;65.35
48606;BME280;8482;54.396;18.590;2023-04-15T08:57:28;101089.66;;;12.81;65.45
48606;BME280;8482;54.396;18.590;2023-04-15T08:59:57;101093.28;;;12.80;65.36
48606;BME280;8482;54.396;18.590;2023-04-15T09:02:24;101085.28;;;12.80;65.68
48606;BME280;8482;54.396;18.590;2023-04-15T09:04:52;101087.00;;;12.81;65.51
48606;BME280;8482;54.396;18.590;2023-04-15T09:07:18;101085.53;;;12.77;65.19
48606;BME280;8482;54.396;18.590;2023-04-15T09:09:44;101095.38;;;12.77;65.50
48606;BME280;8482;54.396;18.590;2023-04-15T09:12:11;101099.25;;;12.72;65.45
48606;BME280;8482;54.396;18.590;2023-04-15T09:14:39;101101.56;;;12.66;65.14
48606;BME280;8482;54.396;18.590;2023-04-15T09:17:09;101091.53;;;12.58;65.47
48606;BME280;8482;54.396;18.590;2023-04-15T09:19:36;101100.03;;;12.52;65.82
48606;BME280;8482;54.396;18.590;2023-04-15T09:22:02;101087.38;;;12.44;65.55
48606;BME280;8482;54.396;18.590;2023-04-15T09:24:54;101095.00;;;12.37;65.91
48606;BME280;8482;54.396;18.590;2023-04-15T09:27:20;101090.53;;;12.26;66.21
48606;BME280;8482;54.396;18.590;2023-04-15T09:29:49;101093.72;;;12.20;66.11
48606;BME280;8482;54.396;18.590;2023-04-15T09:32:16;101088.78;;;12.16;66.58
48606;BME280;8482;54.396;18.590;2023-04-15T09:34:42;101098.69;;;12.14;66.94
48606;BME280;8482;54.396;18.590;2023-04-15T09:37:09;101088.16;;;12.12;66.69
48606;BME280;8482;54.396;18.590;2023-04-15T09:39:51;101093.84;;;12.07;67.07
48606;BME280;8482;54.396;18.590;2023-04-15T09:42:18;101093.09;;;12.05;67.04
48606;BME280;8482;54.396;18.590;2023-04-15T09:44:51;101094.06;;;12.04;67.35
48606;BME280;8482;54.396;18.590;2023-04-15T09:47:32;101101.94;;;12.06;67.28
48606;BME280;8482;54.396;18.590;2023-04-15T09:49:59;101100.13;;;12.06;67.55
48606;BME280;8482;54.396;18.590;2023-04-15T09:52:26;101098.78;;;12.12;67.84
48606;BME280;8482;54.396;18.590;2023-04-15T09:54:55;101096.47;;;12.19;67.71
48606;BME280;8482;54.396;18.590;2023-04-15T09:57:21;101107.38;;;12.27;68.05
48606;BME280;8482;54.396;18.590;2023-04-15T09:59:49;101105.88;;;12.34;67.66
48606;BME280;8482;54.396;18.590;2023-04-15T10:02:17;101100.47;;;12.36;67.46
48606;BME280;8482;54.396;18.590;2023-04-15T10:04:44;101102.75;;;12.40;67.16
48606;BME280;8482;54.396;18.590;2023-04-15T10:07:14;101106.13;;;12.43;67.12
48606;BME280;8482;54.396;18.590;2023-04-15T10:09:45;101111.19;;;12.46;67.06
48606;BME280;8482;54.396;18.590;2023-04-15T10:12:12;101109.38;;;12.46;67.03
48606;BME280;8482;54.396;18.590;2023-04-15T10:14:41;101106.72;;;12.46;66.94
48606;BME280;8482;54.396;18.590;2023-04-15T10:17:10;101109.47;;;12.45;67.03
48606;BME280;8482;54.396;18.590;2023-04-15T10:19:40;101111.56;;;12.41;67.15
48606;BME280;8482;54.396;18.590;2023-04-15T10:22:07;101115.31;;;12.38;66.73
48606;BME280;8482;54.396;18.590;2023-04-15T10:24:33;101113.03;;;12.34;66.99
48606;BME280;8482;54.396;18.590;2023-04-15T10:26:59;101114.38;;;12.28;67.01
48606;BME280;8482;54.396;18.590;2023-04-15T10:29:29;101110.25;;;12.24;67.05
48606;BME280;8482;54.396;18.590;2023-04-15T10:31:55;101119.44;;;12.20;67.03
48606;BME280;8482;54.396;18.590;2023-04-15T10:34:23;101116.19;;;12.16;67.55
48606;BME280;8482;54.396;18.590;2023-04-15T10:36:49;101108.22;;;12.16;67.38
48606;BME280;8482;54.396;18.590;2023-04-15T10:42:18;101104.34;;;12.20;67.93
48606;BME280;8482;54.396;18.590;2023-04-15T10:44:49;101119.06;;;12.24;67.48
48606;BME280;8482;54.396;18.590;2023-04-15T10:47:20;101111.81;;;12.26;67.19
48606;BME280;8482;54.396;18.590;2023-04-15T10:49:59;101115.09;;;12.30;67.37
48606;BME280;8482;54.396;18.590;2023-04-15T10:52:28;101107.13;;;12.30;67.14
48606;BME280;8482;54.396;18.590;2023-04-15T10:55:04;101115.81;;;12.32;66.94
48606;BME280;8482;54.396;18.590;2023-04-15T10:57:39;101108.69;;;12.33;67.05
48606;BME280;8482;54.396;18.590;2023-04-15T11:00:13;101106.13;;;12.31;66.83
48606;BME280;8482;54.396;18.590;2023-04-15T11:02:45;101107.00;;;12.32;66.87
48606;BME280;8482;54.396;18.590;2023-04-15T11:05:16;101108.91;;;12.30;66.74
48606;BME280;8482;54.396;18.590;2023-04-15T11:12:55;101112.56;;;12.29;66.93
48606;BME280;8482;54.396;18.590;2023-04-15T11:15:29;101101.81;;;12.30;66.69
48606;BME280;8482;54.396;18.590;2023-04-15T11:17:57;101102.50;;;12.32;66.59
48606;BME280;8482;54.396;18.590;2023-04-15T11:20:24;101098.75;;;12.35;66.22
48606;BME280;8482;54.396;18.590;2023-04-15T11:22:52;101108.31;;;12.37;66.36
48606;BME280;8482;54.396;18.590;2023-04-15T11:25:27;101111.56;;;12.41;66.19
48606;BME280;8482;54.396;18.590;2023-04-15T11:27:54;101108.78;;;12.43;66.34
48606;BME280;8482;54.396;18.590;2023-04-15T11:30:29;101110.56;;;12.53;66.35
48606;BME280;8482;54.396;18.590;2023-04-15T11:33:03;101100.25;;;12.60;66.05
48606;BME280;8482;54.396;18.590;2023-04-15T11:35:29;101111.47;;;12.75;65.85
48606;BME280;8482;54.396;18.590;2023-04-15T11:37:56;101109.00;;;12.83;65.49
48606;BME280;8482;54.396;18.590;2023-04-15T11:40:28;101112.72;;;12.92;65.59
48606;BME280;8482;54.396;18.590;2023-04-15T11:43:09;101114.19;;;12.96;65.17
48606;BME280;8482;54.396;18.590;2023-04-15T11:48:26;101121.78;;;13.01;64.78
48606;BME280;8482;54.396;18.590;2023-04-15T11:51:05;101128.41;;;13.07;65.29
48606;BME280;8482;54.396;18.590;2023-04-15T11:53:49;101125.09;;;13.14;65.07
48606;BME280;8482;54.396;18.590;2023-04-15T11:56:21;101125.16;;;13.24;64.93
48606;BME280;8482;54.396;18.590;2023-04-15T11:58:51;101136.34;;;13.39;64.41
48606;BME280;8482;54.396;18.590;2023-04-15T12:01:18;101131.53;;;13.54;64.07
48606;BME280;8482;54.396;18.590;2023-04-15T12:03:47;101133.06;;;13.78;63.34
48606;BME280;8482;54.396;18.590;2023-04-15T12:06:21;101123.63;;;14.05;62.70
48606;BME280;8482;54.396;18.590;2023-04-15T12:09:10;101137.22;;;14.33;61.35
48606;BME280;8482;54.396;18.590;2023-04-15T12:11:56;101142.19;;;14.57;60.48
48606;BME280;8482;54.396;18.590;2023-04-15T12:14:30;101136.50;;;14.81;59.40
48606;BME280;8482;54.396;18.590;2023-04-15T12:17:06;101139.44;;;15.08;58.88
48606;BME280;8482;54.396;18.590;2023-04-15T12:19:40;101133.06;;;15.28;58.46
48606;BME280;8482;54.396;18.590;2023-04-15T12:22:11;101140.53;;;15.44;57.86
48606;BME280;8482;54.396;18.590;2023-04-15T12:24:38;101126.13;;;15.55;57.49
48606;BME280;8482;54.396;18.590;2023-04-15T12:27:11;101132.84;;;15.69;56.97
48606;BME280;8482;54.396;18.590;2023-04-15T12:29:39;101133.31;;;15.65;55.78
48606;BME280;8482;54.396;18.590;2023-04-15T12:32:08;101142.91;;;15.47;55.99
48606;BME280;8482;54.396;18.590;2023-04-15T12:34:39;101145.44;;;15.29;56.62
48606;BME280;8482;54.396;18.590;2023-04-15T12:37:09;101152.53;;;15.11;57.24
48606;BME280;8482;54.396;18.590;2023-04-15T12:39:38;101153.09;;;14.95;57.40
48606;BME280;8482;54.396;18.590;2023-04-15T12:42:06;101155.59;;;14.77;57.64
48606;BME280;8482;54.396;18.590;2023-04-15T12:44:34;101167.63;;;14.61;58.02
48606;BME280;8482;54.396;18.590;2023-04-15T12:47:01;101164.50;;;14.46;58.67
48606;BME280;8482;54.396;18.590;2023-04-15T12:49:28;101160.50;;;14.31;58.95
48606;BME280;8482;54.396;18.590;2023-04-15T12:51:59;101159.06;;;14.17;59.20
48606;BME280;8482;54.396;18.590;2023-04-15T12:54:26;101157.59;;;14.03;59.77
48606;BME280;8482;54.396;18.590;2023-04-15T12:56:52;101155.16;;;13.90;59.59
48606;BME280;8482;54.396;18.590;2023-04-15T12:59:19;101162.53;;;13.76;60.26
48606;BME280;8482;54.396;18.590;2023-04-15T13:01:47;101155.34;;;13.67;60.81
48606;BME280;8482;54.396;18.590;2023-04-15T13:04:14;101159.75;;;13.57;61.31
48606;BME280;8482;54.396;18.590;2023-04-15T13:06:41;101159.56;;;13.48;61.28